< < Back
Terminal Aerodrome Forecast


Current Version              Previous Versions:   1  2  3  4  5  6  7  8  9  

Terminal Aerodrome Forecast

141
FTUS44 KBMX 291100
TAFBHM
TAF
KBHM 291126Z 2912/3012 35005KT P6SM SKC
     FM291500 33011G18KT P6SM SKC
     FM300100 35005KT P6SM SKC=

Latest METAR

667
SAUS70 KWBC 291400 RRD
MTRBHM
METAR KBHM 291353Z 01006KT 10SM FEW150 24/16 A3008 RMK AO2 SLP179
T02390156


USA.gov is the U.S. government's official web portal to all federal, state and local government web resources and services.